Time;durP1;ratioP1;P1;durP2;ratioP2;P2;SDS_P1;SDS_P2;PMS_P1;PMS_P2;Temp;Humidity;BMP_temperature;BMP_pressure;BME280_temperature;BME280_humidity;BME280_pressure;Samples;Min_cycle;Max_cycle;Signal;HPM_P1;HPM_P2
2023/01/02 00:00:44;;;;;;;14.77;7.82;;;;;;;10.32;100.00;100803.41;5254210;28;20028;-71
2023/01/02 00:03:15;;;;;;;15.95;7.80;;;;;;;10.32;100.00;100798.06;5252169;28;20031;-70
2023/01/02 00:05:46;;;;;;;15.63;7.38;;;;;;;10.40;100.00;100808.16;5262168;28;20092;-71
2023/01/02 00:08:18;;;;;;;13.02;7.53;;;;;;;10.37;100.00;100811.03;5250465;28;20029;-71
2023/01/02 00:10:49;;;;;;;13.95;8.05;;;;;;;10.42;100.00;100816.06;5253808;28;20025;-71
2023/01/02 00:13:20;;;;;;;15.82;7.53;;;;;;;10.40;100.00;100814.34;5247099;28;20510;-71
2023/01/02 00:15:52;;;;;;;15.93;8.02;;;;;;;10.39;100.00;100804.66;5248327;28;20395;-70
2023/01/02 00:18:23;;;;;;;14.95;8.25;;;;;;;10.40;100.00;100800.16;5250827;28;20048;-71
2023/01/02 00:20:54;;;;;;;14.23;7.65;;;;;;;10.45;100.00;100802.47;5250105;28;20120;-71
2023/01/02 00:23:25;;;;;;;16.52;8.70;;;;;;;10.43;100.00;100807.06;5255994;28;20024;-71
2023/01/02 00:25:57;;;;;;;13.68;7.95;;;;;;;10.48;100.00;100802.25;5256262;28;20035;-71
2023/01/02 00:28:29;;;;;;;13.48;7.88;;;;;;;10.45;100.00;100787.34;5257849;28;20449;-70
2023/01/02 00:31:09;;;;;;;16.00;8.52;;;;;;;10.45;100.00;100791.78;5256333;28;20028;-70
2023/01/02 00:33:40;;;;;;;17.55;8.20;;;;;;;10.41;100.00;100791.16;5250657;28;20577;-71
2023/01/02 00:36:12;;;;;;;17.00;8.50;;;;;;;10.47;100.00;100795.19;5251862;28;20094;-70
2023/01/02 00:38:43;;;;;;;17.83;8.50;;;;;;;10.43;100.00;100788.41;5257536;28;20066;-71
2023/01/02 00:41:14;;;;;;;16.83;9.05;;;;;;;10.44;100.00;100779.44;5255679;28;20028;-70
2023/01/02 00:43:46;;;;;;;17.85;8.68;;;;;;;10.43;100.00;100785.72;5257814;28;20037;-71
2023/01/02 00:46:17;;;;;;;12.50;8.07;;;;;;;10.43;100.00;100778.56;5254454;28;20479;-71
2023/01/02 00:48:48;;;;;;;15.82;8.15;;;;;;;10.44;100.00;100784.78;5249318;28;20041;-71
2023/01/02 00:51:20;;;;;;;15.90;7.85;;;;;;;10.46;100.00;100788.16;5255161;28;20033;-71
2023/01/02 00:53:51;;;;;;;16.63;8.32;;;;;;;10.48;100.00;100781.75;5256996;28;20047;-71
2023/01/02 00:56:22;;;;;;;13.70;8.10;;;;;;;10.47;100.00;100779.19;5254787;28;20041;-71
2023/01/02 00:58:54;;;;;;;15.95;7.78;;;;;;;10.49;100.00;100766.56;5256249;28;20051;-71
2023/01/02 01:01:25;;;;;;;14.65;7.90;;;;;;;10.50;100.00;100763.78;5251879;28;20060;-71
2023/01/02 01:03:56;;;;;;;13.05;6.90;;;;;;;10.62;100.00;100771.81;5257489;28;20024;-71
2023/01/02 01:06:27;;;;;;;14.38;7.05;;;;;;;10.59;100.00;100767.59;5249524;28;20503;-71
2023/01/02 01:08:59;;;;;;;13.60;6.95;;;;;;;10.58;100.00;100763.19;5254546;28;20071;-71
2023/01/02 01:11:30;;;;;;;18.23;7.35;;;;;;;10.55;100.00;100760.78;5248606;28;20048;-71
2023/01/02 01:14:02;;;;;;;14.48;6.70;;;;;;;10.56;100.00;100763.31;5246769;28;20039;-71
2023/01/02 01:16:33;;;;;;;16.83;7.30;;;;;;;10.61;100.00;100765.63;5249182;28;20032;-71
2023/01/02 01:19:04;;;;;;;12.27;6.47;;;;;;;10.62;100.00;100763.81;5244571;28;20055;-71
2023/01/02 01:21:36;;;;;;;13.40;7.28;;;;;;;10.63;100.00;100753.03;5243036;28;20029;-71
2023/01/02 01:24:07;;;;;;;13.90;6.22;;;;;;;10.64;100.00;100754.72;5245513;28;20446;-71
2023/01/02 01:26:38;;;;;;;11.80;6.78;;;;;;;10.67;100.00;100767.81;5248233;28;20044;-71
2023/01/02 01:29:10;;;;;;;14.77;6.80;;;;;;;10.69;100.00;100757.03;5249749;28;20073;-71
2023/01/02 01:31:41;;;;;;;14.93;6.78;;;;;;;10.76;100.00;100756.44;5247363;28;20043;-71
2023/01/02 01:34:13;;;;;;;12.57;7.07;;;;;;;10.70;100.00;100753.38;5249018;28;20594;-71
2023/01/02 01:36:45;;;;;;;14.45;6.65;;;;;;;10.73;100.00;100758.50;5247217;28;20040;-71
2023/01/02 01:39:16;;;;;;;11.52;6.07;;;;;;;10.71;100.00;100760.44;5249014;28;20037;-72
2023/01/02 01:41:47;;;;;;;12.48;6.40;;;;;;;10.73;100.00;100759.31;5247784;28;20068;-72
2023/01/02 01:44:40;;;;;;;13.13;5.95;;;;;;;10.76;100.00;100766.25;5246484;28;20493;-71
2023/01/02 01:47:20;;;;;;;14.05;6.63;;;;;;;10.76;100.00;100760.94;5249337;28;20040;-70
2023/01/02 01:50:23;;;;;;;11.63;6.60;;;;;;;10.76;100.00;100764.44;5248149;28;21319;-71
2023/01/02 01:53:05;;;;;;;13.50;6.30;;;;;;;10.77;100.00;100778.63;5250417;28;20044;-71
2023/01/02 01:55:52;;;;;;;13.00;6.00;;;;;;;10.81;100.00;100779.22;5246864;28;20048;-71
2023/01/02 01:58:28;;;;;;;12.45;6.10;;;;;;;10.83;100.00;100783.47;5248762;28;20029;-71
2023/01/02 02:01:01;;;;;;;18.17;6.30;;;;;;;10.83;100.00;100788.81;5247116;28;20056;-71
2023/01/02 02:03:34;;;;;;;13.48;6.20;;;;;;;10.88;100.00;100778.63;5249476;28;20055;-71
2023/01/02 02:06:06;;;;;;;13.27;6.57;;;;;;;10.85;100.00;100773.53;5249281;28;20043;-71
2023/01/02 02:08:50;;;;;;;16.55;6.63;;;;;;;10.83;100.00;100777.28;5246531;28;20036;-70
2023/01/02 02:11:21;;;;;;;18.73;7.03;;;;;;;10.86;100.00;100774.41;5247950;28;20032;-71
2023/01/02 02:13:57;;;;;;;14.10;6.30;;;;;;;10.86;100.00;100775.25;5247230;28;20402;-71
2023/01/02 02:16:32;;;;;;;14.00;6.20;;;;;;;10.84;100.00;100779.00;5246179;28;20075;-71
2023/01/02 02:19:30;;;;;;;15.48;6.55;;;;;;;10.84;100.00;100779.84;5248297;28;20049;-71
2023/01/02 02:22:23;;;;;;;10.52;5.72;;;;;;;10.85;100.00;100786.88;5247076;28;20033;-71
2023/01/02 02:24:57;;;;;;;12.02;6.50;;;;;;;10.86;100.00;100777.91;5245301;28;20036;-72
2023/01/02 02:27:47;;;;;;;14.65;6.35;;;;;;;10.84;100.00;100787.84;5240510;28;20693;-71
2023/01/02 02:30:53;;;;;;;13.07;6.43;;;;;;;10.85;100.00;100781.53;5241820;28;20122;-71
2023/01/02 02:33:37;;;;;;;13.05;6.18;;;;;;;10.89;100.00;100777.69;5240952;28;20052;-71
2023/01/02 02:36:24;;;;;;;14.88;6.63;;;;;;;10.89;100.00;100782.13;5249265;28;20043;-71
2023/01/02 02:39:16;;;;;;;13.85;5.85;;;;;;;10.87;100.00;100784.09;5248151;28;20029;-72
2023/01/02 02:42:06;;;;;;;17.30;6.15;;;;;;;10.88;100.00;100778.63;5245056;28;20029;-72
2023/01/02 02:44:57;;;;;;;14.80;6.13;;;;;;;10.98;100.00;100778.75;5247380;28;20025;-71
2023/01/02 02:47:58;;;;;;;13.93;6.78;;;;;;;10.90;100.00;100776.69;5248035;28;20020;-71
2023/01/02 02:50:41;;;;;;;12.50;6.38;;;;;;;10.90;100.00;100786.53;5242926;28;20078;-71
2023/01/02 02:53:25;;;;;;;19.65;6.85;;;;;;;10.90;100.00;100790.03;5246349;28;20116;-72
2023/01/02 02:56:00;;;;;;;13.95;6.15;;;;;;;10.94;100.00;100793.31;5244931;28;20053;-71
2023/01/02 02:58:32;;;;;;;11.13;5.90;;;;;;;10.92;100.00;100784.59;5246444;28;20322;-72
2023/01/02 03:01:13;;;;;;;14.73;5.97;;;;;;;10.93;100.00;100791.59;5244188;28;20024;-71
2023/01/02 03:03:44;;;;;;;11.48;6.20;;;;;;;10.89;100.00;100782.13;5247233;28;20029;-71
2023/01/02 03:06:15;;;;;;;12.23;6.05;;;;;;;10.92;100.00;100773.91;5249713;28;20033;-71
2023/01/02 03:09:02;;;;;;;17.65;6.30;;;;;;;10.91;100.00;100780.19;5246752;28;20041;-71
2023/01/02 03:11:46;;;;;;;11.10;6.10;;;;;;;10.92;100.00;100776.56;5244194;28;20033;-71
2023/01/02 03:14:35;;;;;;;13.80;5.90;;;;;;;10.89;100.00;100776.81;5254613;28;20035;-72
2023/01/02 03:17:45;;;;;;;13.68;5.88;;;;;;;10.91;100.00;100780.19;5242521;28;20040;-71
2023/01/02 03:20:20;;;;;;;16.05;6.47;;;;;;;10.88;100.00;100781.31;5244022;28;20056;-71
2023/01/02 03:22:58;;;;;;;15.98;6.03;;;;;;;10.85;100.00;100775.34;5249565;28;20098;-71
2023/01/02 03:25:33;;;;;;;14.75;6.35;;;;;;;10.87;100.00;100776.06;5244209;28;20036;-71
2023/01/02 03:28:06;;;;;;;;;;;;;;;10.86;100.00;100764.56;5250966;28;20032;-71
2023/01/02 03:30:40;;;;;;;14.13;6.63;;;;;;;10.84;100.00;100768.34;5245076;28;20046;-71
2023/01/02 03:33:15;;;;;;;13.27;6.38;;;;;;;10.84;100.00;100771.00;5246326;28;20821;-71
2023/01/02 03:35:54;;;;;;;12.90;6.97;;;;;;;10.85;100.00;100772.69;5245783;28;20127;-70
2023/01/02 03:38:47;;;;;;;12.95;7.03;;;;;;;10.84;100.00;100779.00;5246635;28;20099;-71
2023/01/02 03:41:24;;;;;;;14.93;6.82;;;;;;;10.83;100.00;100779.97;5241671;28;20589;-71
2023/01/02 03:43:58;;;;;;;12.20;6.22;;;;;;;10.83;100.00;100783.47;5248383;28;20033;-71
2023/01/02 03:46:40;;;;;;;14.65;6.13;;;;;;;10.85;100.00;100791.38;5243827;28;20029;-71
2023/01/02 03:49:21;;;;;;;18.33;6.50;;;;;;;10.83;100.00;100785.31;5247048;28;20459;-70
2023/01/02 03:51:53;;;;;;;15.55;6.63;;;;;;;10.82;100.00;100780.94;5243342;28;20029;-71
2023/01/02 03:54:26;;;;;;;11.93;6.88;;;;;;;10.84;100.00;100792.34;5247200;28;20689;-70
2023/01/02 03:57:24;;;;;;;14.45;7.40;;;;;;;10.83;100.00;100798.66;5246248;28;20219;-70
2023/01/02 04:00:11;;;;;;;14.43;6.70;;;;;;;10.82;100.00;100797.81;5249133;28;20056;-70
2023/01/02 04:02:53;;;;;;;14.60;6.55;;;;;;;10.86;100.00;100795.75;5248095;28;20039;-71
2023/01/02 04:05:27;;;;;;;13.45;6.45;;;;;;;10.82;100.00;100805.81;5249945;28;20040;-71
2023/01/02 04:08:06;;;;;;;11.25;6.60;;;;;;;10.87;100.00;100802.78;5250431;28;20068;-70
2023/01/02 04:10:39;;;;;;;15.57;7.38;;;;;;;10.88;100.00;100804.47;5248414;28;20112;-71
2023/01/02 04:13:22;;;;;;;16.92;7.47;;;;;;;10.83;100.00;100812.84;5250627;28;20048;-70
2023/01/02 04:15:54;;;;;;;14.77;7.18;;;;;;;10.81;100.00;100801.44;5247581;28;20040;-71
2023/01/02 04:18:30;;;;;;;17.95;6.88;;;;;;;10.83;100.00;100799.47;5253289;28;20041;-72
2023/01/02 04:21:08;;;;;;;13.70;7.35;;;;;;;10.82;100.00;100813.81;5255231;28;20020;-71
2023/01/02 04:23:45;;;;;;;16.92;7.32;;;;;;;10.81;100.00;100814.78;5256490;28;20027;-70
2023/01/02 04:26:23;;;;;;;14.93;6.95;;;;;;;10.83;100.00;100822.66;5262617;28;20037;-71
2023/01/02 04:28:55;;;;;;;13.95;7.18;;;;;;;10.79;100.00;100828.22;5252874;28;20134;-71
2023/01/02 04:31:34;;;;;;;14.73;7.45;;;;;;;10.82;100.00;100826.31;5248025;28;21432;-71
2023/01/02 04:34:11;;;;;;;12.40;6.82;;;;;;;10.80;100.00;100826.44;5250186;28;20024;-71
2023/01/02 04:36:42;;;;;;;17.98;7.47;;;;;;;10.81;100.00;100824.59;5247420;28;20845;-71
2023/01/02 04:39:14;;;;;;;14.73;7.03;;;;;;;10.81;100.00;100825.44;5249248;28;20025;-71
2023/01/02 04:41:45;;;;;;;14.52;7.40;;;;;;;10.81;100.00;100827.28;5248585;28;20037;-71
2023/01/02 04:44:16;;;;;;;12.57;6.93;;;;;;;10.81;100.00;100829.94;5249391;28;20051;-71
2023/01/02 04:46:48;;;;;;;16.52;7.88;;;;;;;10.80;100.00;100823.75;5248969;28;20033;-71
2023/01/02 04:49:21;;;;;;;16.77;7.15;;;;;;;10.81;100.00;100830.78;5247420;28;20156;-70
2023/01/02 04:51:52;;;;;;;16.77;7.90;;;;;;;10.79;100.00;100832.72;5250891;28;20025;-70
2023/01/02 04:54:24;;;;;;;13.13;6.93;;;;;;;10.78;100.00;100845.22;5251455;28;20475;-70
2023/01/02 04:56:55;;;;;;;15.57;7.38;;;;;;;10.83;100.00;100838.69;5247466;28;20563;-70
2023/01/02 04:59:26;;;;;;;13.93;7.22;;;;;;;10.77;100.00;100845.34;5247699;28;20729;-71
2023/01/02 05:01:57;;;;;;;14.93;6.97;;;;;;;10.78;100.00;100849.72;5250344;28;20168;-71
2023/01/02 05:04:29;;;;;;;13.18;6.72;;;;;;;10.78;100.00;100857.72;5244752;28;20029;-70
2023/01/02 05:07:01;;;;;;;16.38;7.15;;;;;;;10.76;100.00;100854.34;5246252;28;20094;-71
2023/01/02 05:09:33;;;;;;;13.18;7.30;;;;;;;10.75;100.00;100853.47;5250795;28;20029;-71
2023/01/02 05:12:04;;;;;;;14.45;6.85;;;;;;;10.77;100.00;100856.00;5248072;28;20094;-71
2023/01/02 05:14:35;;;;;;;10.95;6.57;;;;;;;10.78;100.00;100847.91;5242657;28;20126;-71
2023/01/02 05:17:07;;;;;;;11.98;6.25;;;;;;;10.75;100.00;100844.59;5243973;28;20565;-71
2023/01/02 05:19:38;;;;;;;14.02;6.90;;;;;;;10.73;100.00;100849.22;5247028;28;20138;-71
2023/01/02 05:25:00;;;;;;;14.98;6.20;;;;;;;10.72;100.00;100856.38;5245671;28;20498;-70
2023/01/02 05:27:32;;;;;;;13.20;6.00;;;;;;;10.72;100.00;100864.38;5246840;28;20033;-71
2023/01/02 05:30:03;;;;;;;13.20;6.25;;;;;;;10.66;100.00;100858.66;5248385;28;20140;-71
2023/01/02 05:32:35;;;;;;;12.77;6.03;;;;;;;10.70;100.00;100865.44;5253598;28;20486;-71
2023/01/02 05:35:06;;;;;;;13.32;5.57;;;;;;;10.69;100.00;100869.94;5250443;28;20021;-70
2023/01/02 05:37:38;;;;;;;12.18;5.47;;;;;;;10.70;100.00;100871.66;5250688;28;20035;-71
2023/01/02 05:40:10;;;;;;;13.35;6.07;;;;;;;10.70;100.00;100882.34;5255104;28;20479;-71
2023/01/02 05:42:41;;;;;;;13.77;5.90;;;;;;;10.69;100.00;100887.78;5254702;28;20462;-71
2023/01/02 05:45:12;;;;;;;11.15;5.80;;;;;;;10.71;100.00;100894.69;5251960;28;20119;-71
2023/01/02 05:47:43;;;;;;;10.88;5.95;;;;;;;10.72;100.00;100901.75;5245379;28;20055;-70
2023/01/02 05:50:15;;;;;;;13.13;6.30;;;;;;;10.71;100.00;100901.88;5252266;28;20032;-71
2023/01/02 05:52:46;;;;;;;8.85;5.45;;;;;;;10.72;100.00;100900.88;5251977;28;20558;-71
2023/01/02 05:55:17;;;;;;;13.90;5.78;;;;;;;10.74;100.00;100904.31;5258480;28;20677;-71
2023/01/02 05:57:53;;;;;;;11.43;5.40;;;;;;;10.71;100.00;100902.69;5251577;28;20022;-71
2023/01/02 06:00:25;;;;;;;13.68;5.78;;;;;;;10.71;100.00;100905.38;5247951;28;20435;-70
2023/01/02 06:02:56;;;;;;;14.27;6.00;;;;;;;10.72;100.00;100906.22;5249398;28;20033;-70
2023/01/02 06:05:27;;;;;;;16.02;6.03;;;;;;;10.73;100.00;100913.28;5256120;28;20037;-71
2023/01/02 06:07:58;;;;;;;13.15;5.40;;;;;;;10.74;100.00;100909.66;5254177;28;20068;-72
2023/01/02 06:10:30;;;;;;;10.35;5.57;;;;;;;10.73;100.00;100926.63;5249920;28;20831;-69
2023/01/02 06:13:01;;;;;;;15.88;6.05;;;;;;;10.72;100.00;100931.09;5250694;28;20028;-70
2023/01/02 06:15:33;;;;;;;13.60;6.43;;;;;;;10.73;100.00;100932.78;5254638;28;20099;-70
2023/01/02 06:18:04;;;;;;;14.63;6.18;;;;;;;10.74;100.00;100939.84;5254191;28;20081;-70
2023/01/02 06:20:35;;;;;;;13.85;6.38;;;;;;;10.74;100.00;100944.34;5250470;28;20025;-70
2023/01/02 06:23:06;;;;;;;15.00;6.35;;;;;;;10.72;100.00;100956.91;5254330;28;20025;-70
2023/01/02 06:25:38;;;;;;;10.75;4.55;;;;;;;10.69;100.00;100970.50;5255441;28;20031;-69
2023/01/02 06:28:09;;;;;;;7.70;5.22;;;;;;;10.64;100.00;100968.16;5254429;28;20029;-69
2023/01/02 06:30:40;;;;;;;11.80;6.40;;;;;;;10.54;100.00;100988.50;5256172;28;20028;-68
2023/01/02 06:33:12;;;;;;;9.43;5.38;;;;;;;10.40;100.00;101009.03;5255916;28;20037;-68
2023/01/02 06:35:43;;;;;;;8.40;4.72;;;;;;;10.24;100.00;101003.13;5249533;28;20035;-69
2023/01/02 06:38:14;;;;;;;6.43;3.20;;;;;;;10.11;100.00;101020.97;5254221;28;20776;-68
2023/01/02 06:40:57;;;;;;;4.47;2.33;;;;;;;9.96;100.00;101021.06;5248929;28;20040;-69
2023/01/02 06:43:29;;;;;;;4.78;2.42;;;;;;;9.79;100.00;101016.94;5249568;28;20125;-69
2023/01/02 06:46:03;;;;;;;4.60;2.38;;;;;;;9.70;100.00;101038.03;5250554;28;20025;-69
2023/01/02 06:48:35;;;;;;;3.40;1.77;;;;;;;9.62;100.00;101047.41;5254591;28;20025;-69
2023/01/02 06:51:08;;;;;;;4.28;1.80;;;;;;;9.54;100.00;101051.59;5254782;28;20029;-68
2023/01/02 06:53:41;;;;;;;3.60;1.50;;;;;;;9.48;100.00;101054.69;5252772;28;20029;-70
2023/01/02 06:56:15;;;;;;;3.55;1.08;;;;;;;9.38;100.00;101054.47;5248568;28;20021;-68
2023/01/02 06:58:46;;;;;;;2.75;1.10;;;;;;;9.28;100.00;101066.66;5250225;28;20032;-69
2023/01/02 07:01:20;;;;;;;2.85;1.15;;;;;;;9.19;100.00;101074.31;5245710;28;20447;-68
2023/01/02 07:03:51;;;;;;;3.38;1.17;;;;;;;9.12;100.00;101081.00;5251528;28;20134;-68
2023/01/02 07:06:23;;;;;;;4.20;1.30;;;;;;;9.05;100.00;101089.50;5250340;28;20039;-69
2023/01/02 07:08:54;;;;;;;4.03;1.80;;;;;;;9.02;100.00;101101.22;5253047;28;20035;-68
2023/01/02 07:11:25;;;;;;;5.07;1.92;;;;;;;8.97;100.00;101106.81;5251562;28;20112;-68
2023/01/02 07:13:57;;;;;;;5.47;2.03;;;;;;;8.99;100.00;101117.38;5252176;28;20108;-69
2023/01/02 07:16:28;;;;;;;5.70;2.63;;;;;;;8.97;100.00;101127.28;5243133;28;20021;-69
2023/01/02 07:18:59;;;;;;;5.85;2.90;;;;;;;9.01;100.00;101129.66;5245612;28;20509;-69
2023/01/02 07:21:31;;;;;;;6.65;3.10;;;;;;;8.89;100.00;101134.91;5250348;28;20350;-69
2023/01/02 07:24:02;;;;;;;5.47;3.10;;;;;;;8.89;100.00;101148.22;5251077;28;20032;-68
2023/01/02 07:26:34;;;;;;;6.00;3.58;;;;;;;8.88;100.00;101149.16;5251494;28;20477;-69
2023/01/02 07:29:05;;;;;;;7.13;3.80;;;;;;;8.84;100.00;101164.47;5252762;28;20418;-69
2023/01/02 07:31:36;;;;;;;8.82;4.03;;;;;;;8.80;100.00;101168.25;5252937;28;20390;-69
2023/01/02 07:34:07;;;;;;;8.82;4.40;;;;;;;8.79;100.00;101171.91;5250858;28;20505;-69
2023/01/02 07:36:39;;;;;;;8.13;4.40;;;;;;;8.79;100.00;101174.56;5252347;28;20478;-69
2023/01/02 07:39:10;;;;;;;9.10;4.55;;;;;;;8.74;100.00;101169.50;5251561;28;20353;-68
2023/01/02 07:41:42;;;;;;;9.93;4.68;;;;;;;8.75;100.00;101181.88;5247715;28;20032;-69
2023/01/02 07:44:14;;;;;;;10.85;5.30;;;;;;;8.76;100.00;101180.94;5250742;28;20539;-69
2023/01/02 07:46:45;;;;;;;12.57;6.25;;;;;;;8.77;100.00;101187.94;5251162;28;20029;-68
2023/01/02 07:49:16;;;;;;;15.20;7.15;;;;;;;8.77;100.00;101195.94;5250683;28;20463;-69
2023/01/02 07:51:48;;;;;;;14.50;7.15;;;;;;;8.72;100.00;101211.31;5246832;28;20021;-69
2023/01/02 07:54:19;;;;;;;17.45;7.93;;;;;;;8.72;100.00;101221.97;5251456;28;20048;-69
2023/01/02 07:56:51;;;;;;;17.35;8.38;;;;;;;8.74;100.00;101222.72;5245509;28;20060;-69
2023/01/02 07:59:22;;;;;;;21.02;8.98;;;;;;;8.74;100.00;101225.38;5239417;28;20029;-68
2023/01/02 08:01:54;;;;;;;22.27;10.15;;;;;;;8.73;100.00;101238.81;5242405;28;20162;-68
2023/01/02 08:04:25;;;;;;;23.35;10.65;;;;;;;8.72;100.00;101239.72;5242280;28;20510;-69
2023/01/02 08:06:56;;;;;;;24.25;11.82;;;;;;;8.75;100.00;101240.41;5243566;28;20103;-69
2023/01/02 08:09:27;;;;;;;23.08;12.43;;;;;;;8.69;100.00;101255.91;5245091;28;20014;-69
2023/01/02 08:11:59;;;;;;;26.95;12.52;;;;;;;8.61;100.00;101257.22;5250308;28;20363;-69
2023/01/02 08:14:30;;;;;;;25.90;12.93;;;;;;;8.60;100.00;101274.13;5248937;28;20420;-69
2023/01/02 08:17:01;;;;;;;24.77;13.40;;;;;;;8.54;100.00;101287.81;5247812;28;20029;-69
2023/01/02 08:19:33;;;;;;;23.45;11.95;;;;;;;8.53;100.00;101280.75;5253340;28;20037;-69
2023/01/02 08:22:04;;;;;;;20.58;12.23;;;;;;;8.52;100.00;101280.88;5249015;28;20035;-69
2023/01/02 08:24:35;;;;;;;24.00;12.65;;;;;;;8.48;100.00;101279.34;5251838;28;20029;-69
2023/01/02 08:27:06;;;;;;;21.63;12.68;;;;;;;8.46;100.00;101291.84;5250911;28;20044;-69
2023/01/02 08:29:38;;;;;;;22.70;12.77;;;;;;;8.42;100.00;101292.06;5248158;28;20024;-68
2023/01/02 08:32:09;;;;;;;24.70;13.57;;;;;;;8.39;100.00;101294.00;5245761;28;20033;-70
2023/01/02 08:34:40;;;;;;;25.00;13.52;;;;;;;8.38;100.00;101298.50;5250661;28;20040;-70
2023/01/02 08:37:12;;;;;;;24.85;13.40;;;;;;;8.34;100.00;101310.25;5246609;28;20021;-70
2023/01/02 08:39:43;;;;;;;21.95;11.95;;;;;;;8.33;100.00;101300.56;5247690;28;20032;-70
2023/01/02 08:42:14;;;;;;;25.17;12.82;;;;;;;8.31;100.00;101313.09;5250749;28;20691;-70
2023/01/02 08:44:46;;;;;;;22.08;12.93;;;;;;;8.27;100.00;101313.38;5254548;28;20032;-70
2023/01/02 08:47:17;;;;;;;21.42;12.95;;;;;;;8.25;100.00;101324.09;5250651;28;20108;-70
2023/01/02 08:49:48;;;;;;;20.20;12.43;;;;;;;8.20;100.00;101316.38;5251775;28;20024;-70
2023/01/02 08:52:20;;;;;;;21.15;12.27;;;;;;;8.19;100.00;101327.13;5252808;28;20075;-69
2023/01/02 08:54:51;;;;;;;24.02;12.43;;;;;;;8.19;100.00;101341.25;5250261;28;20048;-69
2023/01/02 08:57:22;;;;;;;23.73;12.68;;;;;;;8.18;100.00;101334.22;5255044;28;20398;-70
2023/01/02 08:59:53;;;;;;;23.67;12.15;;;;;;;8.16;100.00;101338.75;5254020;28;20032;-70
2023/01/02 09:02:25;;;;;;;25.73;13.18;;;;;;;8.18;100.00;101346.66;5252989;28;20089;-70
2023/01/02 09:04:56;;;;;;;27.52;14.18;;;;;;;8.19;100.00;101349.22;5254602;28;20048;-70
2023/01/02 09:07:31;;;;;;;24.98;13.63;;;;;;;8.17;100.00;101347.59;5252679;28;20024;-70
2023/01/02 09:10:02;;;;;;;23.58;12.25;;;;;;;8.14;100.00;101355.75;5252627;28;20024;-70
2023/01/02 09:12:34;;;;;;;23.17;12.30;;;;;;;8.19;100.00;101359.00;5252975;28;20067;-70
2023/01/02 09:15:06;;;;;;;25.98;11.65;;;;;;;8.18;100.00;101362.59;5253536;28;20035;-70
2023/01/02 09:17:37;;;;;;;23.63;11.77;;;;;;;8.19;100.00;101377.63;5254163;28;20056;-71
2023/01/02 09:20:09;;;;;;;19.25;10.20;;;;;;;8.13;100.00;101383.25;5249935;28;20033;-70
2023/01/02 09:22:40;;;;;;;16.95;9.18;;;;;;;8.12;100.00;101389.53;5251298;28;20082;-70
2023/01/02 09:25:11;;;;;;;16.05;9.32;;;;;;;8.13;100.00;101401.88;5254302;28;20467;-70
2023/01/02 09:27:43;;;;;;;17.52;8.75;;;;;;;8.13;100.00;101407.19;5251981;28;20471;-70
2023/01/02 09:30:14;;;;;;;21.23;9.57;;;;;;;8.14;100.00;101408.91;5254132;28;20569;-70
2023/01/02 09:32:47;;;;;;;15.68;8.77;;;;;;;8.13;100.00;101405.41;5249221;28;20479;-70
2023/01/02 09:35:19;;;;;;;16.83;9.00;;;;;;;8.14;100.00;101398.28;5249213;28;20055;-70
2023/01/02 09:37:50;;;;;;;17.40;8.85;;;;;;;8.14;100.00;101411.56;5248094;28;20033;-70
2023/01/02 09:40:23;;;;;;;16.17;8.77;;;;;;;8.13;100.00;101417.81;5254524;28;20040;-70
2023/01/02 09:42:54;;;;;;;20.33;9.15;;;;;;;8.18;100.00;101411.28;5247788;28;20064;-70
2023/01/02 09:45:25;;;;;;;14.65;8.73;;;;;;;8.18;100.00;101419.28;5253429;28;20111;-70
2023/01/02 09:47:59;;;;;;;15.18;9.02;;;;;;;8.19;100.00;101418.34;5253362;28;20040;-70
2023/01/02 09:50:30;;;;;;;21.03;9.83;;;;;;;8.19;100.00;101428.97;5250189;28;20029;-71
2023/01/02 09:53:03;;;;;;;15.75;9.23;;;;;;;8.18;100.00;101429.06;5251105;28;20032;-70
2023/01/02 09:55:41;;;;;;;15.73;8.30;;;;;;;8.17;100.00;101433.53;5251085;28;20033;-70
2023/01/02 09:58:19;;;;;;;16.83;9.18;;;;;;;8.17;100.00;101438.84;5250771;28;20033;-70
2023/01/02 10:00:51;;;;;;;19.05;9.75;;;;;;;8.17;100.00;101432.66;5249531;28;20486;-70
2023/01/02 10:03:39;;;;;;;15.32;9.38;;;;;;;8.15;100.00;101434.53;5253028;28;20419;-70
2023/01/02 10:06:18;;;;;;;21.50;10.05;;;;;;;8.15;100.00;101442.50;5251211;28;20063;-70
2023/01/02 10:09:11;;;;;;;16.70;9.85;;;;;;;8.15;100.00;101442.50;5254266;28;20067;-70
2023/01/02 10:12:04;;;;;;;18.85;10.05;;;;;;;8.16;100.00;101455.72;5251123;28;20494;-70
2023/01/02 10:14:54;;;;;;;19.02;10.65;;;;;;;8.22;100.00;101444.72;5253808;28;20552;-70
2023/01/02 10:17:30;;;;;;;20.38;10.98;;;;;;;8.20;100.00;101456.41;5249930;28;20443;-71
2023/01/02 10:20:14;;;;;;;23.45;11.70;;;;;;;8.21;100.00;101452.81;5253158;28;20494;-71
2023/01/02 10:22:52;;;;;;;20.13;11.70;;;;;;;8.22;100.00;101449.19;5251572;28;20052;-70
2023/01/02 10:25:35;;;;;;;21.80;12.45;;;;;;;8.28;100.00;101448.00;5250218;28;20037;-70
2023/01/02 10:28:29;;;;;;;24.08;12.93;;;;;;;8.29;100.00;101447.06;5253186;28;20379;-70
2023/01/02 10:31:11;;;;;;;23.33;12.13;;;;;;;8.30;100.00;101452.25;5248947;28;20068;-70
2023/01/02 10:33:57;;;;;;;20.83;12.68;;;;;;;8.37;100.00;101460.75;5255709;28;20463;-70
2023/01/02 10:36:39;;;;;;;21.35;11.75;;;;;;;8.43;100.00;101471.91;5249830;28;20037;-70
2023/01/02 10:39:16;;;;;;;21.08;11.68;;;;;;;8.42;100.00;101472.03;5248766;28;20025;-69
2023/01/02 10:41:55;;;;;;;23.50;12.23;;;;;;;8.38;100.00;101463.34;5250383;28;20525;-70
2023/01/02 10:44:32;;;;;;;20.65;11.82;;;;;;;8.41;100.00;101465.84;5250795;28;20033;-70
2023/01/02 10:47:35;;;;;;;26.63;12.25;;;;;;;8.42;100.00;101462.25;5249950;28;20052;-70
2023/01/02 10:50:17;;;;;;;27.58;13.75;;;;;;;8.41;100.00;101470.28;5252897;28;20025;-70
2023/01/02 10:52:51;;;;;;;23.05;13.20;;;;;;;8.44;100.00;101473.66;5251152;28;20020;-70
2023/01/02 10:55:29;;;;;;;;;;;;;;;8.45;100.00;101471.84;5249008;28;20032;-70
2023/01/02 10:58:05;;;;;;;28.23;14.82;;;;;;;8.39;100.00;101472.16;5250155;28;20844;-70
2023/01/02 11:00:37;;;;;;;31.15;14.18;;;;;;;8.37;100.00;101482.88;5245255;28;20113;-70
2023/01/02 11:03:11;;;;;;;29.75;13.63;;;;;;;8.38;100.00;101484.63;5251551;28;20028;-70
2023/01/02 11:05:52;;;;;;;26.05;14.15;;;;;;;8.40;100.00;101488.03;5247284;28;20098;-69
2023/01/02 11:08:35;;;;;;;29.25;15.35;;;;;;;8.40;100.00;101488.03;5251149;28;20056;-70
2023/01/02 11:11:15;;;;;;;26.48;14.95;;;;;;;8.49;100.00;101491.13;5251730;28;20032;-70
2023/01/02 11:13:50;;;;;;;31.80;15.00;;;;;;;8.47;100.00;101493.03;5251310;28;20087;-70
2023/01/02 11:16:25;;;;;;;28.08;14.98;;;;;;;8.48;100.00;101487.63;5249303;28;20120;-70
2023/01/02 11:18:57;;;;;;;;;;;;;;;8.50;100.00;101492.88;5247231;28;20526;-69
2023/01/02 11:21:34;;;;;;;27.40;14.50;;;;;;;8.44;100.00;101505.56;5252724;28;20157;-69
2023/01/02 11:24:15;;;;;;;32.78;15.18;;;;;;;8.53;100.00;101500.66;5250019;28;20116;-69
2023/01/02 11:26:48;;;;;;;33.95;16.40;;;;;;;8.49;100.00;101501.78;5249801;28;20028;-69
2023/01/02 11:29:27;;;;;;;32.57;16.87;;;;;;;8.49;100.00;101504.44;5254192;28;20050;-69
2023/01/02 11:32:00;;;;;;;27.55;16.45;;;;;;;8.62;100.00;101508.09;5250855;28;20021;-70
2023/01/02 11:34:34;;;;;;;32.90;16.77;;;;;;;8.58;100.00;101511.91;5250995;28;20037;-70
2023/01/02 11:37:12;;;;;;;31.60;18.10;;;;;;;8.61;100.00;101512.59;5252238;28;20041;-70
2023/01/02 11:39:55;;;;;;;30.13;17.17;;;;;;;8.69;100.00;101508.63;5253553;28;20041;-70
2023/01/02 11:45:29;;;;;;;31.75;17.65;;;;;;;8.60;100.00;101510.00;5251895;28;20036;-70
2023/01/02 11:48:05;;;;;;;30.15;17.42;;;;;;;8.61;100.00;101498.41;5254405;28;20380;-70
2023/01/02 11:50:38;;;;;;;30.67;17.10;;;;;;;8.69;100.00;101501.50;5251610;28;20505;-70
2023/01/02 11:53:12;;;;;;;32.10;17.83;;;;;;;8.59;100.00;101503.84;5252335;28;20032;-70